Philadelphia, Pennsylvania
Traffic Map
Current Weather Conditions
Philadelphia, Pennsylvania
Overcast Thunderstorm
Overcast
85°
Feels Like: 90°
Wind Chill: 85° Ceiling: 25000
Heat Index: 90° Visibility: 10mi
Dew Point: 71° Wind: 8mph
Humidity: 63% Direction: 180° (S)
Pressure: 29.82in Gusts: 0mph
Raw Report DataKPHL 232354Z 18007KT 10SM TS SCT040CB SCT100 SCT150 OVC250 29/22 A2982 RMK AO2 TSB50 SLP098 OCNL LTGIC VC W-VC N TS VC W-VC N MOV SE T02940217 10339 20294 53000 $
Traffic Incident Summary
Active as of:
Severity:
Category:
InformationThere was an issue retrieving the traffic information for this location. Please try a different location or try again shortly.
Advertisements
Track Severe Weather on mobile